createdAt,value
2022-10-05T00:00:47.449Z,97.45
2022-10-05T00:03:15.350Z,97.91
2022-10-05T00:05:44.828Z,97.78
2022-10-05T00:08:13.957Z,97.41
2022-10-05T00:10:42.203Z,97.48
2022-10-05T00:13:12.905Z,96.78
2022-10-05T00:15:39.507Z,97.13
2022-10-05T00:18:12.929Z,98.16
2022-10-05T00:20:41.665Z,98.66
2022-10-05T00:23:14.999Z,98.79
2022-10-05T00:25:41.740Z,98.43
2022-10-05T00:28:16.760Z,97.44
2022-10-05T00:30:44.215Z,97.58
2022-10-05T00:33:10.727Z,97.58
2022-10-05T00:35:37.381Z,97.87
2022-10-05T00:38:05.670Z,98.11
2022-10-05T00:40:51.857Z,97.95
2022-10-05T00:43:42.850Z,97.94
2022-10-05T00:46:15.561Z,98.27
2022-10-05T00:48:49.056Z,97.87
2022-10-05T00:51:24.229Z,98.13
2022-10-05T00:54:01.762Z,97.99
2022-10-05T00:56:48.740Z,97.61
2022-10-05T00:59:25.643Z,97.69
2022-10-05T01:01:57.496Z,97.51
2022-10-05T01:04:29.132Z,98.01
2022-10-05T01:07:07.911Z,98.66
2022-10-05T01:09:45.828Z,98.28
2022-10-05T01:12:23.089Z,98.22
2022-10-05T01:14:55.819Z,97.82
2022-10-05T01:17:28.017Z,98.24
2022-10-05T01:20:22.402Z,98.04
2022-10-05T01:23:05.093Z,97.78
2022-10-05T01:25:41.101Z,97.85
2022-10-05T01:28:15.054Z,97.74
2022-10-05T01:30:47.843Z,97.44
2022-10-05T01:33:23.023Z,97.86
2022-10-05T01:35:57.563Z,98.73
2022-10-05T01:38:34.757Z,99.54
2022-10-05T01:41:10.106Z,99.02
2022-10-05T01:43:44.868Z,98.93
2022-10-05T01:46:24.825Z,98.95
2022-10-05T01:49:10.718Z,97.99
2022-10-05T01:51:46.811Z,98.49
2022-10-05T01:54:22.364Z,98.11
2022-10-05T01:57:00.495Z,98.32
2022-10-05T01:59:43.322Z,99.42
2022-10-05T02:02:14.107Z,99.40
2022-10-05T02:05:02.942Z,99.70
2022-10-05T02:07:36.088Z,99.40
2022-10-05T02:10:08.818Z,99.43
2022-10-05T02:12:38.111Z,99.15
2022-10-05T02:15:13.906Z,99.42
2022-10-05T02:17:45.474Z,99.52
2022-10-05T02:20:17.271Z,98.97
2022-10-05T02:22:47.115Z,98.92
2022-10-05T02:25:16.940Z,99.12
2022-10-05T02:27:49.811Z,98.71
2022-10-05T02:30:19.114Z,99.15
2022-10-05T02:32:54.582Z,99.51
2022-10-05T02:35:22.276Z,99.75
2022-10-05T02:38:00.918Z,99.65
2022-10-05T02:40:40.203Z,99.17
2022-10-05T02:43:17.933Z,99.03
2022-10-05T02:45:55.898Z,98.78
2022-10-05T02:48:34.038Z,99.21
2022-10-05T02:51:07.761Z,98.82
2022-10-05T02:53:40.738Z,99.50
2022-10-05T02:56:18.952Z,99.61
2022-10-05T02:58:55.575Z,99.59
2022-10-05T03:01:27.640Z,99.40
2022-10-05T03:04:06.852Z,99.07
2022-10-05T03:06:40.312Z,98.54
2022-10-05T03:09:09.436Z,98.34
2022-10-05T03:11:46.628Z,98.57
2022-10-05T03:14:20.303Z,98.62
2022-10-05T03:17:03.251Z,98.03
2022-10-05T03:19:45.590Z,97.40
2022-10-05T03:22:23.370Z,97.88
2022-10-05T03:25:15.925Z,98.40
2022-10-05T03:27:48.345Z,98.16
2022-10-05T03:30:18.780Z,98.81
2022-10-05T03:33:01.167Z,98.41
2022-10-05T03:35:31.811Z,98.18
2022-10-05T03:38:10.381Z,97.53
2022-10-05T03:40:44.194Z,98.16
2022-10-05T03:43:26.104Z,97.58
2022-10-05T03:45:56.697Z,98.37
2022-10-05T03:48:31.448Z,98.56
2022-10-05T03:51:05.836Z,98.39
2022-10-05T03:53:38.859Z,98.70
2022-10-05T03:56:09.828Z,98.42
2022-10-05T03:58:42.788Z,97.47
2022-10-05T04:01:15.922Z,97.93
2022-10-05T04:03:48.179Z,98.28
2022-10-05T04:06:18.571Z,98.29
2022-10-05T04:08:51.972Z,98.81
2022-10-05T04:11:26.437Z,98.83
2022-10-05T04:14:00.795Z,98.49
2022-10-05T04:16:31.311Z,98.72
2022-10-05T04:19:04.070Z,98.71
2022-10-05T04:21:36.449Z,98.24
2022-10-05T04:24:11.128Z,99.06
2022-10-05T04:26:45.353Z,98.72
2022-10-05T04:29:17.636Z,98.74
2022-10-05T04:31:57.919Z,98.53
2022-10-05T04:34:52.460Z,98.45
2022-10-05T04:37:25.423Z,98.66
2022-10-05T04:40:08.478Z,98.92
2022-10-05T04:42:42.599Z,98.34
2022-10-05T04:45:20.565Z,98.77
2022-10-05T04:48:35.194Z,98.46
2022-10-05T04:51:17.203Z,98.35
2022-10-05T04:53:46.740Z,98.85
2022-10-05T04:56:18.388Z,98.20
2022-10-05T04:59:08.823Z,98.60
2022-10-05T05:01:51.143Z,98.43
2022-10-05T05:04:36.211Z,99.08
2022-10-05T05:07:18.972Z,98.50
2022-10-05T05:10:13.405Z,98.45
2022-10-05T05:12:52.465Z,98.80
2022-10-05T05:15:30.734Z,98.75
2022-10-05T05:18:33.060Z,98.69
2022-10-05T05:21:05.954Z,98.59
2022-10-05T05:23:41.057Z,98.56
2022-10-05T05:26:16.693Z,98.51
2022-10-05T05:28:50.604Z,98.83
2022-10-05T05:31:27.449Z,99.38
2022-10-05T05:34:03.593Z,99.46
2022-10-05T05:36:51.021Z,99.67
2022-10-05T05:39:28.442Z,99.67
2022-10-05T05:42:10.313Z,99.38
2022-10-05T05:44:46.201Z,99.38
2022-10-05T05:47:19.553Z,99.45
2022-10-05T05:50:06.389Z,99.33
2022-10-05T05:52:40.628Z,99.41
2022-10-05T05:55:18.709Z,100.00
2022-10-05T05:57:54.289Z,100.00
2022-10-05T06:00:23.951Z,100.00
2022-10-05T06:03:03.966Z,100.00
2022-10-05T06:05:33.955Z,100.00
2022-10-05T06:08:06.859Z,100.00
2022-10-05T06:10:40.039Z,100.00
2022-10-05T06:13:15.606Z,100.00
2022-10-05T06:15:46.834Z,100.00
2022-10-05T06:18:16.835Z,100.00
2022-10-05T06:20:49.011Z,100.00
2022-10-05T06:23:20.160Z,100.00
2022-10-05T06:26:07.076Z,100.00
2022-10-05T06:28:37.238Z,100.00
2022-10-05T06:31:14.085Z,100.00
2022-10-05T06:33:50.675Z,100.00
2022-10-05T06:36:35.220Z,100.00
2022-10-05T06:39:11.008Z,100.00
2022-10-05T06:41:57.029Z,100.00
2022-10-05T06:44:51.228Z,100.00
2022-10-05T06:47:38.630Z,100.00
2022-10-05T06:50:31.577Z,100.00
2022-10-05T06:53:27.750Z,100.00
2022-10-05T06:55:59.246Z,100.00
2022-10-05T06:58:43.266Z,100.00
2022-10-05T07:01:14.515Z,100.00
2022-10-05T07:03:56.923Z,100.00
2022-10-05T07:06:33.470Z,100.00
2022-10-05T07:09:18.851Z,100.00
2022-10-05T07:12:04.757Z,100.00
2022-10-05T07:14:53.800Z,100.00
2022-10-05T07:17:38.608Z,100.00
2022-10-05T07:20:15.776Z,100.00
2022-10-05T07:23:07.122Z,100.00
2022-10-05T07:25:40.530Z,100.00
2022-10-05T07:28:12.885Z,100.00
2022-10-05T07:30:50.159Z,100.00
2022-10-05T07:33:21.806Z,100.00
2022-10-05T07:35:55.501Z,100.00
2022-10-05T07:38:28.520Z,100.00
2022-10-05T07:41:02.517Z,100.00
2022-10-05T07:44:00.533Z,100.00
2022-10-05T07:46:32.074Z,100.00
2022-10-05T07:49:05.887Z,100.00
2022-10-05T07:51:37.197Z,100.00
2022-10-05T07:54:16.776Z,100.00
2022-10-05T07:56:46.210Z,100.00
2022-10-05T07:59:24.934Z,100.00
2022-10-05T08:01:59.976Z,100.00
2022-10-05T08:04:31.461Z,100.00
2022-10-05T08:07:02.215Z,100.00
2022-10-05T08:09:40.782Z,100.00
2022-10-05T08:12:19.261Z,100.00
2022-10-05T08:14:52.124Z,100.00
2022-10-05T08:17:26.403Z,100.00
2022-10-05T08:20:01.002Z,99.88
2022-10-05T08:22:34.866Z,100.00
2022-10-05T08:25:04.546Z,99.13
2022-10-05T08:27:38.649Z,99.56
2022-10-05T08:30:09.137Z,98.91
2022-10-05T08:32:40.737Z,99.03
2022-10-05T08:35:22.935Z,99.43
2022-10-05T08:37:50.819Z,98.79
2022-10-05T08:40:39.608Z,97.76
2022-10-05T08:43:17.959Z,98.72
2022-10-05T08:46:32.758Z,98.61
2022-10-05T08:49:19.303Z,97.08
2022-10-05T08:52:07.773Z,96.09
2022-10-05T08:54:45.123Z,96.39
2022-10-05T08:57:42.432Z,95.94
2022-10-05T09:00:12.666Z,94.53
2022-10-05T09:03:04.079Z,93.46
2022-10-05T09:06:03.902Z,91.66
2022-10-05T09:08:51.697Z,91.05
2022-10-05T09:11:23.689Z,90.19
2022-10-05T09:14:14.426Z,89.13
2022-10-05T09:16:52.673Z,89.56
2022-10-05T09:19:51.644Z,86.51
2022-10-05T09:22:35.582Z,84.49
2022-10-05T09:25:14.646Z,84.17
2022-10-05T09:27:49.232Z,82.94
2022-10-05T09:30:22.913Z,82.88
2022-10-05T09:33:11.243Z,82.52
2022-10-05T09:36:06.856Z,81.98
2022-10-05T09:38:50.417Z,81.58
2022-10-05T09:41:51.881Z,79.02
2022-10-05T09:44:51.562Z,79.89
2022-10-05T09:47:44.078Z,81.26
2022-10-05T09:50:49.327Z,81.26
2022-10-05T09:53:39.052Z,79.93
2022-10-05T09:56:29.788Z,78.82
2022-10-05T09:59:27.561Z,76.76
2022-10-05T10:02:14.640Z,75.22
2022-10-05T10:05:09.031Z,71.78
2022-10-05T10:08:09.106Z,72.83
2022-10-05T10:10:59.967Z,72.43
2022-10-05T10:13:52.504Z,71.40
2022-10-05T10:16:32.192Z,69.94
2022-10-05T10:19:32.234Z,71.80
2022-10-05T10:22:16.507Z,69.33
2022-10-05T10:25:16.870Z,69.34
2022-10-05T10:27:59.334Z,69.53
2022-10-05T10:30:45.257Z,69.68
2022-10-05T10:33:29.078Z,70.61
2022-10-05T10:36:03.019Z,69.83
2022-10-05T10:38:39.836Z,71.71
2022-10-05T10:41:34.463Z,70.19
2022-10-05T10:44:57.410Z,68.18
2022-10-05T10:47:54.103Z,62.83
2022-10-05T10:50:49.101Z,62.11
2022-10-05T10:53:51.748Z,60.06
2022-10-05T10:56:29.553Z,60.79
2022-10-05T10:59:35.000Z,60.80
2022-10-05T11:02:26.328Z,60.44
2022-10-05T11:05:27.606Z,58.53
2022-10-05T11:08:08.476Z,58.08
2022-10-05T11:10:58.948Z,57.46
2022-10-05T11:13:41.616Z,58.41
2022-10-05T11:16:49.877Z,56.65
2022-10-05T11:20:02.916Z,56.29
2022-10-05T11:22:43.613Z,55.86
2022-10-05T11:25:51.390Z,55.47
2022-10-05T11:28:37.564Z,54.45
2022-10-05T11:31:35.641Z,53.74
2022-10-05T11:34:43.192Z,54.43
2022-10-05T11:37:43.170Z,54.29
2022-10-05T11:40:32.816Z,54.51
2022-10-05T11:43:22.020Z,52.89
2022-10-05T11:46:00.511Z,52.82
2022-10-05T11:48:45.374Z,53.64
2022-10-05T11:51:37.271Z,54.34
2022-10-05T11:54:24.043Z,53.57
2022-10-05T11:56:59.152Z,52.53
2022-10-05T11:59:32.882Z,52.81
2022-10-05T12:02:26.916Z,53.21
2022-10-05T12:05:08.407Z,51.24
2022-10-05T12:07:43.287Z,51.97
2022-10-05T12:10:26.796Z,52.13
2022-10-05T12:13:06.207Z,51.09
2022-10-05T12:15:43.064Z,51.86
2022-10-05T12:18:15.150Z,51.84
2022-10-05T12:20:49.215Z,52.61
2022-10-05T12:23:22.920Z,51.26
2022-10-05T12:25:56.420Z,51.11
2022-10-05T12:28:36.454Z,51.22
2022-10-05T12:31:17.275Z,51.24
2022-10-05T12:33:50.431Z,51.09
2022-10-05T12:36:22.981Z,51.09
2022-10-05T12:38:57.687Z,51.56
2022-10-05T12:41:32.532Z,50.09
2022-10-05T12:44:16.382Z,48.48
2022-10-05T12:46:53.726Z,48.60
2022-10-05T12:49:32.761Z,47.86
2022-10-05T12:52:02.001Z,47.74
2022-10-05T12:54:42.123Z,48.62
2022-10-05T12:57:14.541Z,48.91
2022-10-05T12:59:46.961Z,49.00
2022-10-05T13:02:27.094Z,48.70
2022-10-05T13:04:59.662Z,49.10
2022-10-05T13:07:39.561Z,49.41
2022-10-05T13:10:20.233Z,49.56
2022-10-05T13:12:56.662Z,49.89
2022-10-05T13:15:29.420Z,50.73
2022-10-05T13:18:08.104Z,50.89
2022-10-05T13:20:44.131Z,50.89
2022-10-05T13:23:18.227Z,50.92
2022-10-05T13:25:52.391Z,50.90
2022-10-05T13:28:24.469Z,50.93
2022-10-05T13:31:02.916Z,50.57
2022-10-05T13:33:53.310Z,50.35
2022-10-05T13:36:28.502Z,50.50
2022-10-05T13:39:00.599Z,50.86
2022-10-05T13:41:37.671Z,50.81
2022-10-05T13:44:15.810Z,50.98
2022-10-05T13:46:48.551Z,51.36
2022-10-05T13:49:23.121Z,51.15
2022-10-05T13:51:57.990Z,51.63
2022-10-05T13:54:36.055Z,51.94
2022-10-05T13:57:14.752Z,50.64
2022-10-05T13:59:47.645Z,51.16
2022-10-05T14:02:21.619Z,50.65
2022-10-05T14:04:50.169Z,50.31
2022-10-05T14:07:29.857Z,50.82
2022-10-05T14:09:57.247Z,49.80
2022-10-05T14:12:25.445Z,50.66
2022-10-05T14:14:53.800Z,51.07
2022-10-05T14:17:46.203Z,50.38
2022-10-05T14:20:25.249Z,50.04
2022-10-05T14:22:56.191Z,49.83
2022-10-05T14:25:23.342Z,49.97
2022-10-05T14:27:59.589Z,49.13
2022-10-05T14:30:27.995Z,49.76
2022-10-05T14:33:05.811Z,49.55
2022-10-05T14:35:45.825Z,48.98
2022-10-05T14:38:18.876Z,49.57
2022-10-05T14:40:45.571Z,49.37
2022-10-05T14:43:20.407Z,50.08
2022-10-05T14:45:54.609Z,49.34
2022-10-05T14:48:24.897Z,49.51
2022-10-05T14:50:54.474Z,49.21
2022-10-05T14:53:23.238Z,49.79
2022-10-05T14:56:08.831Z,49.28
2022-10-05T14:58:51.471Z,49.66
2022-10-05T15:01:25.707Z,49.49
2022-10-05T15:04:04.017Z,50.94
2022-10-05T15:06:36.978Z,51.76
2022-10-05T15:09:23.063Z,51.93
2022-10-05T15:11:52.753Z,51.65
2022-10-05T15:14:22.224Z,51.56
2022-10-05T15:16:51.339Z,51.66
2022-10-05T15:19:39.700Z,51.89
2022-10-05T15:22:19.000Z,52.49
2022-10-05T15:24:55.983Z,52.93
2022-10-05T15:27:29.371Z,53.10
2022-10-05T15:30:03.225Z,53.03
2022-10-05T15:32:43.139Z,52.92
2022-10-05T15:35:33.039Z,53.45
2022-10-05T15:38:08.971Z,54.02
2022-10-05T15:40:41.757Z,54.50
2022-10-05T15:43:13.702Z,54.24
2022-10-05T15:45:52.950Z,55.71
2022-10-05T15:48:25.038Z,55.36
2022-10-05T15:50:59.539Z,55.89
2022-10-05T15:53:35.815Z,56.03
2022-10-05T15:56:07.093Z,56.37
2022-10-05T15:58:50.811Z,56.79
2022-10-05T16:01:21.239Z,57.05
2022-10-05T16:03:56.834Z,57.34
2022-10-05T16:06:33.456Z,57.72
2022-10-05T16:09:09.430Z,58.01
2022-10-05T16:11:57.766Z,58.06
2022-10-05T16:14:49.885Z,58.31
2022-10-05T16:17:26.304Z,58.25
2022-10-05T16:20:02.909Z,58.71
2022-10-05T16:22:43.246Z,58.76
2022-10-05T16:25:19.604Z,58.72
2022-10-05T16:28:08.308Z,59.39
2022-10-05T16:30:47.522Z,60.10
2022-10-05T16:33:21.259Z,60.54
2022-10-05T16:35:59.727Z,60.92
2022-10-05T16:38:36.708Z,61.96
2022-10-05T16:41:07.791Z,62.67
2022-10-05T16:43:44.966Z,63.08
2022-10-05T16:46:22.229Z,63.87
2022-10-05T16:48:57.895Z,64.89
2022-10-05T16:51:32.724Z,65.42
2022-10-05T16:54:10.582Z,65.76
2022-10-05T16:56:42.613Z,66.71
2022-10-05T16:59:44.015Z,67.39
2022-10-05T17:02:22.554Z,68.30
2022-10-05T17:04:59.882Z,68.63
2022-10-05T17:07:53.097Z,69.21
2022-10-05T17:10:40.086Z,70.20
2022-10-05T17:13:23.236Z,70.75
2022-10-05T17:16:03.661Z,71.43
2022-10-05T17:18:58.433Z,72.43
2022-10-05T17:21:30.315Z,73.05
2022-10-05T17:24:04.763Z,73.32
2022-10-05T17:26:54.262Z,74.13
2022-10-05T17:29:27.853Z,75.25
2022-10-05T17:32:30.127Z,75.32
2022-10-05T17:35:20.149Z,76.00
2022-10-05T17:38:10.053Z,76.25
2022-10-05T17:40:38.873Z,76.94
2022-10-05T17:43:23.680Z,77.49
2022-10-05T17:45:54.367Z,77.66
2022-10-05T17:48:40.209Z,77.90
2022-10-05T17:51:37.627Z,78.45
2022-10-05T17:54:21.653Z,78.77
2022-10-05T17:57:22.447Z,78.96
2022-10-05T17:59:59.417Z,79.05
2022-10-05T18:02:40.497Z,79.68
2022-10-05T18:05:23.616Z,81.18
2022-10-05T18:08:25.803Z,81.64
2022-10-05T18:11:13.622Z,82.61
2022-10-05T18:13:45.533Z,83.03
2022-10-05T18:16:51.959Z,83.03
2022-10-05T18:19:21.899Z,82.40
2022-10-05T18:22:03.510Z,81.89
2022-10-05T18:24:50.688Z,82.16
2022-10-05T18:27:49.593Z,82.11
2022-10-05T18:30:21.640Z,82.16
2022-10-05T18:33:24.945Z,82.02
2022-10-05T18:36:07.608Z,82.22
2022-10-05T18:38:44.097Z,82.19
2022-10-05T18:41:21.105Z,82.21
2022-10-05T18:43:59.693Z,82.84
2022-10-05T18:46:38.570Z,83.41
2022-10-05T18:49:27.309Z,83.81
2022-10-05T18:52:02.356Z,84.16
2022-10-05T18:54:51.998Z,85.13
2022-10-05T18:57:51.081Z,84.50
2022-10-05T19:00:19.514Z,83.94
2022-10-05T19:02:50.275Z,83.93
2022-10-05T19:05:46.907Z,84.39
2022-10-05T19:08:24.942Z,84.18
2022-10-05T19:10:55.218Z,84.93
2022-10-05T19:13:33.988Z,85.10
2022-10-05T19:16:18.308Z,85.22
2022-10-05T19:19:06.940Z,85.36
2022-10-05T19:21:43.518Z,85.57
2022-10-05T19:24:29.010Z,85.24
2022-10-05T19:27:06.458Z,85.62
2022-10-05T19:29:46.974Z,85.54
2022-10-05T19:32:22.736Z,85.28
2022-10-05T19:35:04.997Z,85.39
2022-10-05T19:37:43.562Z,85.66
2022-10-05T19:40:18.022Z,85.82
2022-10-05T19:43:00.989Z,86.30
2022-10-05T19:45:29.373Z,86.55
2022-10-05T19:48:14.145Z,87.09
2022-10-05T19:50:53.780Z,87.08
2022-10-05T19:53:25.594Z,87.08
2022-10-05T19:55:52.438Z,86.64
2022-10-05T19:58:21.723Z,86.57
2022-10-05T20:00:55.179Z,86.54
2022-10-05T20:03:24.793Z,86.75
2022-10-05T20:05:51.314Z,86.38
2022-10-05T20:08:20.153Z,86.35
2022-10-05T20:11:04.656Z,86.06
2022-10-05T20:13:31.466Z,86.37
2022-10-05T20:16:09.398Z,86.68
2022-10-05T20:18:47.222Z,86.78
2022-10-05T20:21:39.056Z,86.69
2022-10-05T20:24:07.083Z,87.01
2022-10-05T20:26:39.526Z,87.37
2022-10-05T20:29:08.584Z,87.44
2022-10-05T20:31:35.168Z,87.39
2022-10-05T20:34:01.913Z,87.70
2022-10-05T20:36:28.483Z,87.17
2022-10-05T20:38:55.374Z,87.10
2022-10-05T20:41:21.853Z,87.19
2022-10-05T20:43:49.779Z,87.37
2022-10-05T20:46:16.326Z,87.48
2022-10-05T20:48:42.884Z,87.79
2022-10-05T20:51:09.415Z,87.58
2022-10-05T20:53:35.975Z,87.29
2022-10-05T20:56:02.553Z,87.26
2022-10-05T20:58:29.711Z,87.12
2022-10-05T21:00:57.965Z,87.17
2022-10-05T21:03:24.670Z,87.39
2022-10-05T21:05:51.520Z,87.34
2022-10-05T21:08:18.283Z,87.19
2022-10-05T21:10:45.982Z,87.22
2022-10-05T21:13:12.823Z,86.91
2022-10-05T21:15:40.463Z,86.97
2022-10-05T21:18:08.726Z,86.81
2022-10-05T21:20:35.282Z,87.08
2022-10-05T21:23:01.968Z,87.01
2022-10-05T21:25:28.584Z,87.18
2022-10-05T21:27:55.323Z,87.25
2022-10-05T21:30:21.970Z,87.12
2022-10-05T21:32:48.688Z,87.34
2022-10-05T21:35:16.681Z,86.72
2022-10-05T21:37:43.274Z,86.70
2022-10-05T21:40:10.652Z,86.20
2022-10-05T21:42:37.326Z,85.13
2022-10-05T21:45:04.592Z,84.11
2022-10-05T21:47:31.266Z,83.72
2022-10-05T21:49:57.854Z,83.73
2022-10-05T21:52:26.096Z,83.59
2022-10-05T21:54:52.635Z,83.43
2022-10-05T21:57:19.247Z,83.29
2022-10-05T21:59:46.176Z,82.82
2022-10-05T22:02:12.761Z,82.97
2022-10-05T22:04:39.364Z,82.15
2022-10-05T22:07:14.108Z,80.79
2022-10-05T22:09:42.194Z,78.27
2022-10-05T22:12:08.710Z,78.91
2022-10-05T22:14:35.250Z,79.44
2022-10-05T22:17:01.802Z,78.83
2022-10-05T22:19:28.503Z,78.04
2022-10-05T22:21:55.049Z,77.51
2022-10-05T22:24:21.733Z,75.81
2022-10-05T22:26:50.438Z,74.54
2022-10-05T22:29:17.395Z,73.95
2022-10-05T22:31:44.892Z,73.54
2022-10-05T22:34:11.632Z,73.47
2022-10-05T22:36:38.150Z,72.82
2022-10-05T22:39:04.815Z,72.91
2022-10-05T22:41:31.398Z,72.48
2022-10-05T22:43:59.825Z,72.27
2022-10-05T22:46:26.437Z,71.89
2022-10-05T22:48:53.382Z,72.23
2022-10-05T22:51:19.915Z,72.21
2022-10-05T22:53:46.523Z,71.34
2022-10-05T22:56:13.886Z,71.48
2022-10-05T22:58:42.019Z,71.99
2022-10-05T23:01:12.340Z,72.33
2022-10-05T23:03:39.369Z,73.08
2022-10-05T23:06:08.159Z,72.57
2022-10-05T23:08:36.313Z,72.73
2022-10-05T23:11:03.771Z,72.74
2022-10-05T23:13:30.913Z,72.79
2022-10-05T23:15:57.749Z,71.94
2022-10-05T23:18:26.297Z,71.91
2022-10-05T23:20:54.095Z,72.83
2022-10-05T23:23:20.902Z,73.01
2022-10-05T23:25:47.442Z,72.64
2022-10-05T23:28:14.185Z,73.24
2022-10-05T23:30:40.914Z,73.62
2022-10-05T23:33:07.546Z,74.27
2022-10-05T23:35:35.414Z,75.16
2022-10-05T23:38:02.035Z,74.89
2022-10-05T23:40:28.545Z,74.83
2022-10-05T23:42:55.104Z,75.45
2022-10-05T23:45:21.849Z,75.80
2022-10-05T23:47:48.406Z,76.13
2022-10-05T23:50:15.188Z,76.14
2022-10-05T23:52:44.279Z,76.03
2022-10-05T23:55:10.832Z,75.89
2022-10-05T23:57:37.440Z,75.93
